createdAt,value
2018-04-06T00:00:13.732Z,5.3
2018-04-06T00:01:15.122Z,5.3
2018-04-06T00:02:16.540Z,5.2
2018-04-06T00:03:17.974Z,5.3
2018-04-06T00:04:19.356Z,5.3
2018-04-06T00:05:20.744Z,5.3
2018-04-06T00:06:22.129Z,5.3
2018-04-06T00:07:23.522Z,5.3
2018-04-06T00:08:24.907Z,5.3
2018-04-06T00:09:26.287Z,5.3
2018-04-06T00:10:27.666Z,5.3
2018-04-06T00:11:29.051Z,5.3
2018-04-06T00:12:30.434Z,5.2
2018-04-06T00:13:31.816Z,5.3
2018-04-06T00:14:33.228Z,5.2
2018-04-06T00:15:34.617Z,5.2
2018-04-06T00:16:36.002Z,5.2
2018-04-06T00:17:37.499Z,5.2
2018-04-06T00:18:38.902Z,5.2
2018-04-06T00:19:40.286Z,5.2
2018-04-06T00:20:41.678Z,5.2
2018-04-06T00:21:43.092Z,5.2
2018-04-06T00:22:44.471Z,5.2
2018-04-06T00:23:45.858Z,5.2
2018-04-06T00:24:47.233Z,5.2
2018-04-06T00:25:48.617Z,5.2
2018-04-06T00:26:50.037Z,5.2
2018-04-06T00:27:51.420Z,5.2
2018-04-06T00:28:52.802Z,5.2
2018-04-06T00:29:54.190Z,5.2
2018-04-06T00:30:55.575Z,5.2
2018-04-06T00:31:56.949Z,5.2
2018-04-06T00:32:58.360Z,5.2
2018-04-06T00:33:59.731Z,5.2
2018-04-06T00:35:01.110Z,5.2
2018-04-06T00:36:02.494Z,5.1
2018-04-06T00:37:03.881Z,5.2
2018-04-06T00:38:05.261Z,5.2
2018-04-06T00:39:06.643Z,5.2
2018-04-06T00:40:08.024Z,5.1
2018-04-06T00:41:09.406Z,5.1
2018-04-06T00:42:10.792Z,5.1
2018-04-06T00:43:12.178Z,5.1
2018-04-06T00:44:13.570Z,5.1
2018-04-06T00:45:14.956Z,5.0
2018-04-06T00:46:16.336Z,5.0
2018-04-06T00:47:17.743Z,5.1
2018-04-06T00:48:19.098Z,5.0
2018-04-06T00:49:20.493Z,5.1
2018-04-06T00:50:21.864Z,5.1
2018-04-06T00:51:23.250Z,5.0
2018-04-06T00:52:24.745Z,5.0
2018-04-06T00:53:26.126Z,4.9
2018-04-06T00:54:27.509Z,5.0
2018-04-06T00:55:28.889Z,5.0
2018-04-06T00:56:30.275Z,4.9
2018-04-06T00:57:31.663Z,5.0
2018-04-06T00:58:33.055Z,4.9
2018-04-06T00:59:34.438Z,4.8
2018-04-06T01:00:35.822Z,4.9
2018-04-06T01:01:37.202Z,4.9
2018-04-06T01:02:38.609Z,4.9
2018-04-06T01:03:39.984Z,4.9
2018-04-06T01:04:41.370Z,4.9
2018-04-06T01:05:42.764Z,4.9
2018-04-06T01:06:44.136Z,5.0
2018-04-06T01:07:45.554Z,4.9
2018-04-06T01:08:46.939Z,4.9
2018-04-06T01:09:48.460Z,4.9
2018-04-06T01:10:49.876Z,4.8
2018-04-06T01:11:51.262Z,4.8
2018-04-06T01:12:52.649Z,4.9
2018-04-06T01:13:54.033Z,4.8
2018-04-06T01:14:55.414Z,4.9
2018-04-06T01:15:56.800Z,4.9
2018-04-06T01:16:58.245Z,4.9
2018-04-06T01:17:59.628Z,4.8
2018-04-06T01:19:01.065Z,4.9
2018-04-06T01:20:02.451Z,4.8
2018-04-06T01:21:03.840Z,4.9
2018-04-06T01:22:05.219Z,4.8
2018-04-06T01:23:06.602Z,4.9
2018-04-06T01:24:08.001Z,4.8
2018-04-06T01:25:09.384Z,4.8
2018-04-06T01:26:10.772Z,4.8
2018-04-06T01:27:12.153Z,4.8
2018-04-06T01:28:13.593Z,4.8
2018-04-06T01:29:14.973Z,4.9
2018-04-06T01:30:16.356Z,4.8
2018-04-06T01:31:17.737Z,4.8
2018-04-06T01:32:19.127Z,4.9
2018-04-06T01:33:20.511Z,4.8
2018-04-06T01:34:21.897Z,4.8
2018-04-06T01:35:23.284Z,4.9
2018-04-06T01:36:24.666Z,4.8
2018-04-06T01:37:26.063Z,4.8
2018-04-06T01:38:27.449Z,4.8
2018-04-06T01:39:28.884Z,4.8
2018-04-06T01:40:30.265Z,4.7
2018-04-06T01:41:31.652Z,4.8
2018-04-06T01:42:33.038Z,4.8
2018-04-06T01:43:34.419Z,4.8
2018-04-06T01:44:35.803Z,4.8
2018-04-06T01:45:37.187Z,4.7
2018-04-06T01:46:38.592Z,4.7
2018-04-06T01:47:39.978Z,4.7
2018-04-06T01:48:41.366Z,4.7
2018-04-06T01:49:42.789Z,4.6
2018-04-06T01:50:44.173Z,4.6
2018-04-06T01:51:45.552Z,4.7
2018-04-06T01:52:46.936Z,4.7
2018-04-06T01:53:48.325Z,4.7
2018-04-06T01:54:49.701Z,4.7
2018-04-06T01:55:51.087Z,4.7
2018-04-06T01:56:52.471Z,4.6
2018-04-06T01:57:53.849Z,4.6
2018-04-06T01:58:55.231Z,4.6
2018-04-06T01:59:56.684Z,4.6
2018-04-06T02:00:58.025Z,4.7
2018-04-06T02:01:59.554Z,4.6
2018-04-06T02:03:00.976Z,4.7
2018-04-06T02:04:02.363Z,4.7
2018-04-06T02:05:03.742Z,4.7
2018-04-06T02:06:05.125Z,4.7
2018-04-06T02:07:06.505Z,4.7
2018-04-06T02:08:07.894Z,4.7
2018-04-06T02:09:09.275Z,4.6
2018-04-06T02:10:10.661Z,4.7
2018-04-06T02:11:12.058Z,4.7
2018-04-06T02:12:13.427Z,4.8
2018-04-06T02:13:14.809Z,4.7
2018-04-06T02:14:16.191Z,4.7
2018-04-06T02:15:17.575Z,4.7
2018-04-06T02:16:18.980Z,4.7
2018-04-06T02:17:20.363Z,4.8
2018-04-06T02:18:21.747Z,4.7
2018-04-06T02:19:23.128Z,4.8
2018-04-06T02:20:24.511Z,4.7
2018-04-06T02:21:25.909Z,4.7
2018-04-06T02:22:27.292Z,4.7
2018-04-06T02:23:28.694Z,4.7
2018-04-06T02:24:30.131Z,4.7
2018-04-06T02:25:31.461Z,4.7
2018-04-06T02:26:32.843Z,4.8
2018-04-06T02:27:34.264Z,4.7
2018-04-06T02:28:35.644Z,4.7
2018-04-06T02:29:37.029Z,4.7
2018-04-06T02:30:38.421Z,4.7
2018-04-06T02:31:39.806Z,4.8
2018-04-06T02:32:41.185Z,4.8
2018-04-06T02:33:42.569Z,4.7
2018-04-06T02:34:43.956Z,4.7
2018-04-06T02:35:45.342Z,4.8
2018-04-06T02:36:46.746Z,4.7
2018-04-06T02:37:48.137Z,4.7
2018-04-06T02:38:49.517Z,4.8
2018-04-06T02:39:50.891Z,4.8
2018-04-06T02:40:52.288Z,4.8
2018-04-06T02:41:53.662Z,4.8
2018-04-06T02:42:55.046Z,4.8
2018-04-06T02:43:56.427Z,4.7
2018-04-06T02:44:57.808Z,4.7
2018-04-06T02:45:59.189Z,4.8
2018-04-06T02:47:00.580Z,4.7
2018-04-06T02:48:01.960Z,4.8
2018-04-06T02:49:03.366Z,4.7
2018-04-06T02:50:04.742Z,4.8
2018-04-06T02:51:06.126Z,4.7
2018-04-06T02:52:07.512Z,4.7
2018-04-06T02:53:08.894Z,4.7
2018-04-06T02:54:10.357Z,4.8
2018-04-06T02:55:11.828Z,4.7
2018-04-06T02:56:13.209Z,4.7
2018-04-06T02:57:14.607Z,4.6
2018-04-06T02:58:15.989Z,4.7
2018-04-06T02:59:17.370Z,4.6
2018-04-06T03:00:18.777Z,4.6
2018-04-06T03:01:20.147Z,4.7
2018-04-06T03:02:21.530Z,4.6
2018-04-06T03:03:22.912Z,4.5
2018-04-06T03:04:24.293Z,4.7
2018-04-06T03:05:25.674Z,4.6
2018-04-06T03:06:27.060Z,4.6
2018-04-06T03:07:28.454Z,4.5
2018-04-06T03:08:29.833Z,4.5
2018-04-06T03:09:31.217Z,4.6
2018-04-06T03:10:32.596Z,4.5
2018-04-06T03:11:34.001Z,4.5
2018-04-06T03:12:35.388Z,4.5
2018-04-06T03:13:36.768Z,4.5
2018-04-06T03:14:38.155Z,4.5
2018-04-06T03:15:39.536Z,4.5
2018-04-06T03:16:40.915Z,4.5
2018-04-06T03:17:42.298Z,4.5
2018-04-06T03:18:43.700Z,4.5
2018-04-06T03:19:45.083Z,4.5
2018-04-06T03:20:46.469Z,4.5
2018-04-06T03:21:47.850Z,4.4
2018-04-06T03:22:49.232Z,4.5
2018-04-06T03:23:50.614Z,4.3
2018-04-06T03:24:51.998Z,4.4
2018-04-06T03:25:53.441Z,4.4
2018-04-06T03:26:54.823Z,4.4
2018-04-06T03:27:56.199Z,4.4
2018-04-06T03:28:57.588Z,4.3
2018-04-06T03:29:58.990Z,4.3
2018-04-06T03:31:00.372Z,4.4
2018-04-06T03:32:01.756Z,4.3
2018-04-06T03:33:03.138Z,4.3
2018-04-06T03:34:04.518Z,4.3
2018-04-06T03:35:05.903Z,4.3
2018-04-06T03:36:07.286Z,4.2
2018-04-06T03:37:08.674Z,4.2
2018-04-06T03:38:10.064Z,4.2
2018-04-06T03:39:11.438Z,4.2
2018-04-06T03:40:12.820Z,4.2
2018-04-06T03:41:14.201Z,4.1
2018-04-06T03:42:15.602Z,4.1
2018-04-06T03:43:17.000Z,4.1
2018-04-06T03:44:18.387Z,4.1
2018-04-06T03:45:19.773Z,4.1
2018-04-06T03:46:21.157Z,4.1
2018-04-06T03:47:22.642Z,4.1
2018-04-06T03:48:24.100Z,4.2
2018-04-06T03:49:25.505Z,4.0
2018-04-06T03:50:26.864Z,4.0
2018-04-06T03:51:28.252Z,4.0
2018-04-06T03:52:29.632Z,4.1
2018-04-06T03:53:31.015Z,4.1
2018-04-06T03:54:32.395Z,4.2
2018-04-06T03:55:33.793Z,4.2
2018-04-06T03:56:35.177Z,4.2
2018-04-06T03:57:36.565Z,4.1
2018-04-06T03:58:37.943Z,4.1
2018-04-06T03:59:39.318Z,4.1
2018-04-06T04:00:40.699Z,4.1
2018-04-06T04:01:42.085Z,4.2
2018-04-06T04:02:43.491Z,4.1
2018-04-06T04:03:44.881Z,4.1
2018-04-06T04:04:46.276Z,4.2
2018-04-06T04:05:47.651Z,4.1
2018-04-06T04:06:49.050Z,4.1
2018-04-06T04:07:50.431Z,4.1
2018-04-06T04:08:51.814Z,4.0
2018-04-06T04:09:53.200Z,4.1
2018-04-06T04:10:54.580Z,4.0
2018-04-06T04:11:55.977Z,4.0
2018-04-06T04:12:57.348Z,4.1
2018-04-06T04:13:58.753Z,4.2
2018-04-06T04:15:00.140Z,4.1
2018-04-06T04:16:01.514Z,4.2
2018-04-06T04:17:02.894Z,4.2
2018-04-06T04:18:04.281Z,4.1
2018-04-06T04:19:05.662Z,4.1
2018-04-06T04:20:07.040Z,4.1
2018-04-06T04:21:08.441Z,4.1
2018-04-06T04:22:09.824Z,4.1
2018-04-06T04:23:11.206Z,4.1
2018-04-06T04:24:12.591Z,4.0
2018-04-06T04:25:13.973Z,4.1
2018-04-06T04:26:15.355Z,4.1
2018-04-06T04:27:16.739Z,4.1
2018-04-06T04:28:18.118Z,4.0
2018-04-06T04:29:19.507Z,4.0
2018-04-06T04:30:20.885Z,4.0
2018-04-06T04:31:22.265Z,4.0
2018-04-06T04:32:23.686Z,4.1
2018-04-06T04:33:25.066Z,4.0
2018-04-06T04:34:26.501Z,4.0
2018-04-06T04:35:27.830Z,4.0
2018-04-06T04:36:29.214Z,4.0
2018-04-06T04:37:30.599Z,4.0
2018-04-06T04:38:31.982Z,4.0
2018-04-06T04:39:33.502Z,4.0
2018-04-06T04:40:34.963Z,4.0
2018-04-06T04:41:36.341Z,4.0
2018-04-06T04:42:37.723Z,4.0
2018-04-06T04:43:39.121Z,3.9
2018-04-06T04:44:40.503Z,3.9
2018-04-06T04:45:41.885Z,3.9
2018-04-06T04:46:43.310Z,3.9
2018-04-06T04:47:44.661Z,3.9
2018-04-06T04:48:46.052Z,3.9
2018-04-06T04:49:47.428Z,3.9
2018-04-06T04:50:48.816Z,3.8
2018-04-06T04:51:50.199Z,3.8
2018-04-06T04:52:51.583Z,3.8
2018-04-06T04:53:52.968Z,3.8
2018-04-06T04:54:54.354Z,3.9
2018-04-06T04:55:55.742Z,3.8
2018-04-06T04:56:57.125Z,3.7
2018-04-06T04:57:58.522Z,3.7
2018-04-06T04:58:59.906Z,3.7
2018-04-06T05:00:01.298Z,3.8
2018-04-06T05:01:02.685Z,3.7
2018-04-06T05:02:04.084Z,3.8
2018-04-06T05:03:05.461Z,3.7
2018-04-06T05:04:06.843Z,3.7
2018-04-06T05:05:08.236Z,3.7
2018-04-06T05:06:09.610Z,3.7
2018-04-06T05:07:10.993Z,3.7
2018-04-06T05:08:12.389Z,3.7
2018-04-06T05:09:13.790Z,3.6
2018-04-06T05:10:15.173Z,3.7
2018-04-06T05:11:16.556Z,3.7
2018-04-06T05:12:17.944Z,3.7
2018-04-06T05:13:19.348Z,3.7
2018-04-06T05:14:20.734Z,3.6
2018-04-06T05:15:22.120Z,3.7
2018-04-06T05:16:23.512Z,3.7
2018-04-06T05:17:24.890Z,3.6
2018-04-06T05:18:26.282Z,3.7
2018-04-06T05:19:27.660Z,3.7
2018-04-06T05:20:29.064Z,3.7
2018-04-06T05:21:30.469Z,3.6
2018-04-06T05:22:31.838Z,3.7
2018-04-06T05:23:33.228Z,3.7
2018-04-06T05:24:34.618Z,3.7
2018-04-06T05:25:36.001Z,3.8
2018-04-06T05:26:37.391Z,3.7
2018-04-06T05:27:38.794Z,3.7
2018-04-06T05:28:40.246Z,3.7
2018-04-06T05:29:41.649Z,3.8
2018-04-06T05:30:43.054Z,3.7
2018-04-06T05:31:44.421Z,3.8
2018-04-06T05:32:45.890Z,3.7
2018-04-06T05:33:47.307Z,3.8
2018-04-06T05:34:48.691Z,3.8
2018-04-06T05:35:50.083Z,3.9
2018-04-06T05:36:51.463Z,3.8
2018-04-06T05:37:52.850Z,3.8
2018-04-06T05:38:54.317Z,3.8
2018-04-06T05:39:55.619Z,3.8
2018-04-06T05:40:57.001Z,3.8
2018-04-06T05:41:58.387Z,3.9
2018-04-06T05:42:59.774Z,3.9
2018-04-06T05:44:01.159Z,3.9
2018-04-06T05:45:02.551Z,3.9
2018-04-06T05:46:03.941Z,3.9
2018-04-06T05:47:05.324Z,3.9
2018-04-06T05:48:06.711Z,4.0
2018-04-06T05:49:08.095Z,3.9
2018-04-06T05:50:09.482Z,4.0
2018-04-06T05:51:10.868Z,3.9
2018-04-06T05:52:12.258Z,4.0
2018-04-06T05:53:13.677Z,3.9
2018-04-06T05:54:15.050Z,4.0
2018-04-06T05:55:16.431Z,4.0
2018-04-06T05:56:17.822Z,4.0
2018-04-06T05:57:19.211Z,4.0
2018-04-06T05:58:20.621Z,4.1
2018-04-06T05:59:21.988Z,4.0
2018-04-06T06:00:23.372Z,4.0
2018-04-06T06:01:24.756Z,4.1
2018-04-06T06:02:26.137Z,4.1
2018-04-06T06:03:27.522Z,4.1
2018-04-06T06:04:28.904Z,4.1
2018-04-06T06:05:30.302Z,4.1
2018-04-06T06:06:31.694Z,4.1
2018-04-06T06:07:33.078Z,4.1
2018-04-06T06:08:34.464Z,4.1
2018-04-06T06:09:35.844Z,4.1
2018-04-06T06:10:37.234Z,4.1
2018-04-06T06:11:38.669Z,4.1
2018-04-06T06:12:40.055Z,4.1
2018-04-06T06:13:41.440Z,4.1
2018-04-06T06:14:42.828Z,4.1
2018-04-06T06:15:44.207Z,4.2
2018-04-06T06:16:45.594Z,4.1
2018-04-06T06:17:46.980Z,4.2
2018-04-06T06:18:48.385Z,4.2
2018-04-06T06:19:49.762Z,4.2
2018-04-06T06:20:51.150Z,4.4
2018-04-06T06:21:52.531Z,4.4
2018-04-06T06:22:53.916Z,4.4
2018-04-06T06:23:55.298Z,4.4
2018-04-06T06:24:56.797Z,4.4
2018-04-06T06:25:58.244Z,4.5
2018-04-06T06:26:59.626Z,4.5
2018-04-06T06:28:01.013Z,4.5
2018-04-06T06:29:02.421Z,4.5
2018-04-06T06:30:03.781Z,4.6
2018-04-06T06:31:05.168Z,4.6
2018-04-06T06:32:06.551Z,4.7
2018-04-06T06:33:07.936Z,4.8
2018-04-06T06:34:09.321Z,4.8
2018-04-06T06:35:10.716Z,4.8
2018-04-06T06:36:12.106Z,4.8
2018-04-06T06:37:13.496Z,4.9
2018-04-06T06:38:14.882Z,4.9
2018-04-06T06:39:16.265Z,4.8
2018-04-06T06:40:17.650Z,4.9
2018-04-06T06:41:19.040Z,4.9
2018-04-06T06:42:20.423Z,4.9
2018-04-06T06:43:21.810Z,5.0
2018-04-06T06:44:23.195Z,5.0
2018-04-06T06:45:24.579Z,5.1
2018-04-06T06:46:25.968Z,5.1
2018-04-06T06:47:27.362Z,5.1
2018-04-06T06:48:28.769Z,5.2
2018-04-06T06:49:30.154Z,5.1
2018-04-06T06:50:31.538Z,5.2
2018-04-06T06:51:32.928Z,5.2
2018-04-06T06:52:34.322Z,5.2
2018-04-06T06:53:35.708Z,5.4
2018-04-06T06:54:37.093Z,5.4
2018-04-06T06:55:38.516Z,5.4
2018-04-06T06:56:39.907Z,5.4
2018-04-06T06:57:41.290Z,5.5
2018-04-06T06:58:42.676Z,5.5
2018-04-06T06:59:44.068Z,5.4
2018-04-06T07:00:45.454Z,5.5
2018-04-06T07:01:46.842Z,5.6
2018-04-06T07:02:48.250Z,5.6
2018-04-06T07:03:49.640Z,5.6
2018-04-06T07:04:51.030Z,5.7
2018-04-06T07:05:52.416Z,5.8
2018-04-06T07:06:53.859Z,5.8
2018-04-06T07:07:55.254Z,5.8
2018-04-06T07:08:56.639Z,5.8
2018-04-06T07:09:58.032Z,5.9
2018-04-06T07:10:59.417Z,5.9
2018-04-06T07:12:00.812Z,6.1
2018-04-06T07:13:02.192Z,6.1
2018-04-06T07:14:03.619Z,6.1
2018-04-06T07:15:04.978Z,6.1
2018-04-06T07:16:06.365Z,6.2
2018-04-06T07:17:07.754Z,6.2
2018-04-06T07:18:09.292Z,6.3
2018-04-06T07:19:10.685Z,6.3
2018-04-06T07:20:12.095Z,6.3
2018-04-06T07:21:13.497Z,6.3
2018-04-06T07:22:14.887Z,6.4
2018-04-06T07:23:16.307Z,6.6
2018-04-06T07:24:17.695Z,6.5
2018-04-06T07:25:19.145Z,6.6
2018-04-06T07:26:20.532Z,6.8
2018-04-06T07:27:21.917Z,6.7
2018-04-06T07:28:23.357Z,6.7
2018-04-06T07:29:24.735Z,6.9
2018-04-06T07:30:26.142Z,6.8
2018-04-06T07:31:27.529Z,6.9
2018-04-06T07:32:28.964Z,6.9
2018-04-06T07:33:30.339Z,7.0
2018-04-06T07:34:31.720Z,7.0
2018-04-06T07:35:33.115Z,7.1
2018-04-06T07:36:34.518Z,7.3
2018-04-06T07:37:35.883Z,7.2
2018-04-06T07:38:37.267Z,7.3
2018-04-06T07:39:38.750Z,7.3
2018-04-06T07:40:40.135Z,7.5
2018-04-06T07:41:41.519Z,7.5
2018-04-06T07:42:42.912Z,7.5
2018-04-06T07:43:44.326Z,7.6
2018-04-06T07:44:45.715Z,7.6
2018-04-06T07:45:47.114Z,7.7
2018-04-06T07:46:48.500Z,7.7
2018-04-06T07:47:49.883Z,7.8
2018-04-06T07:48:51.272Z,7.9
2018-04-06T07:49:52.661Z,7.8
2018-04-06T07:50:54.049Z,7.8
2018-04-06T07:51:55.440Z,8.0
2018-04-06T07:52:56.831Z,8.1
2018-04-06T07:53:58.217Z,8.1
2018-04-06T07:54:59.605Z,8.1
2018-04-06T07:56:00.994Z,8.1
2018-04-06T07:57:02.435Z,8.2
2018-04-06T07:58:03.772Z,8.3
2018-04-06T07:59:05.182Z,8.4
2018-04-06T08:00:06.570Z,8.4
2018-04-06T08:01:07.960Z,8.3
2018-04-06T08:02:09.349Z,8.5
2018-04-06T08:03:10.781Z,8.5
2018-04-06T08:04:12.167Z,8.6
2018-04-06T08:05:13.557Z,8.6
2018-04-06T08:06:14.951Z,8.6
2018-04-06T08:07:16.334Z,8.7
2018-04-06T08:08:17.725Z,8.6
2018-04-06T08:09:19.119Z,8.8
2018-04-06T08:10:20.663Z,8.9
2018-04-06T08:11:22.060Z,8.8
2018-04-06T08:12:23.481Z,8.8
2018-04-06T08:13:24.908Z,8.9
2018-04-06T08:14:26.258Z,9.0
2018-04-06T08:15:27.647Z,9.0
2018-04-06T08:16:29.039Z,9.2
2018-04-06T08:17:30.443Z,9.3
2018-04-06T08:18:31.830Z,9.2
2018-04-06T08:19:33.224Z,9.3
2018-04-06T08:20:34.616Z,9.2
2018-04-06T08:21:36.002Z,9.3
2018-04-06T08:22:37.396Z,9.3
2018-04-06T08:23:38.791Z,9.5
2018-04-06T08:24:40.180Z,9.5
2018-04-06T08:25:41.576Z,9.5
2018-04-06T08:26:42.957Z,9.8
2018-04-06T08:27:44.346Z,9.8
2018-04-06T08:28:45.738Z,10.0
2018-04-06T08:29:47.130Z,10.1
2018-04-06T08:30:48.536Z,10.1
2018-04-06T08:31:49.920Z,10.2
2018-04-06T08:32:51.311Z,10.3
2018-04-06T08:33:52.704Z,10.3
2018-04-06T08:34:54.113Z,10.4
2018-04-06T08:35:55.602Z,10.5
2018-04-06T08:36:56.994Z,10.4
2018-04-06T08:37:58.413Z,10.5
2018-04-06T08:38:59.783Z,10.5
2018-04-06T08:40:01.176Z,10.6
2018-04-06T08:41:02.592Z,10.6
2018-04-06T08:42:03.976Z,10.6
2018-04-06T08:43:05.369Z,10.7
2018-04-06T08:44:06.762Z,10.7
2018-04-06T08:45:08.160Z,10.7
2018-04-06T08:46:09.541Z,10.8
2018-04-06T08:47:10.938Z,10.8
2018-04-06T08:48:12.330Z,10.8
2018-04-06T08:49:13.722Z,10.9
2018-04-06T08:50:15.117Z,10.8
2018-04-06T08:51:16.509Z,10.8
2018-04-06T08:52:17.908Z,10.9
2018-04-06T08:53:19.294Z,10.9
2018-04-06T08:54:20.685Z,11.0
2018-04-06T08:55:22.075Z,11.0
2018-04-06T08:56:23.470Z,11.0
2018-04-06T08:57:24.863Z,11.1
2018-04-06T08:58:26.251Z,11.2
2018-04-06T08:59:27.641Z,11.3
2018-04-06T09:00:29.034Z,11.2
2018-04-06T09:01:30.429Z,11.3
2018-04-06T09:02:31.941Z,11.4
2018-04-06T09:03:33.322Z,12.0
2018-04-06T09:04:34.737Z,12.4
2018-04-06T09:05:36.132Z,12.7
2018-04-06T09:06:37.532Z,13.1
2018-04-06T09:07:38.928Z,13.4
2018-04-06T09:08:40.313Z,13.6
2018-04-06T09:09:41.705Z,13.8
2018-04-06T09:10:43.097Z,14.0
2018-04-06T09:11:44.495Z,14.3
2018-04-06T09:12:45.930Z,14.7
2018-04-06T09:13:47.284Z,14.7
2018-04-06T09:14:48.690Z,14.8
2018-04-06T09:15:50.077Z,15.2
2018-04-06T09:16:51.463Z,15.5
2018-04-06T09:17:52.857Z,15.8
2018-04-06T09:18:54.269Z,15.9
2018-04-06T09:19:55.653Z,15.9
2018-04-06T09:20:57.047Z,16.0
2018-04-06T09:21:58.435Z,16.2
2018-04-06T09:22:59.829Z,16.5
2018-04-06T09:24:01.231Z,16.5
2018-04-06T09:25:02.708Z,16.6
2018-04-06T09:26:04.121Z,16.5
2018-04-06T09:27:05.533Z,16.5
2018-04-06T09:28:06.899Z,16.3
2018-04-06T09:29:08.307Z,16.5
2018-04-06T09:30:09.704Z,16.4
2018-04-06T09:31:11.093Z,16.4
2018-04-06T09:32:12.491Z,16.3
2018-04-06T09:33:13.896Z,16.3
2018-04-06T09:34:15.293Z,16.2
2018-04-06T09:35:16.697Z,16.0
2018-04-06T09:36:18.088Z,16.0
2018-04-06T09:37:19.481Z,16.1
2018-04-06T09:38:20.875Z,16.1
2018-04-06T09:39:22.272Z,16.1
2018-04-06T09:40:23.710Z,16.1
2018-04-06T09:41:25.105Z,16.1
2018-04-06T09:42:26.501Z,16.0
2018-04-06T09:43:27.893Z,15.8
2018-04-06T09:44:29.291Z,15.7
2018-04-06T09:45:30.697Z,15.8
2018-04-06T09:46:32.088Z,15.7
2018-04-06T09:47:33.512Z,15.8
2018-04-06T09:48:34.907Z,15.8
2018-04-06T09:49:36.305Z,15.8
2018-04-06T09:50:37.697Z,15.5
2018-04-06T09:51:39.144Z,15.4
2018-04-06T09:52:40.538Z,15.6
2018-04-06T09:53:41.941Z,15.8
2018-04-06T09:54:43.434Z,15.7
2018-04-06T09:55:44.838Z,15.6
2018-04-06T09:56:46.229Z,15.7
2018-04-06T09:57:47.627Z,15.8
2018-04-06T09:58:49.020Z,15.8
2018-04-06T09:59:50.420Z,15.9
2018-04-06T10:00:51.813Z,16.1
2018-04-06T10:01:53.209Z,16.1
2018-04-06T10:02:54.682Z,16.2
2018-04-06T10:03:56.043Z,16.1
2018-04-06T10:04:57.437Z,16.1
2018-04-06T10:05:58.845Z,16.2
2018-04-06T10:07:00.244Z,16.2
2018-04-06T10:08:01.640Z,16.4
2018-04-06T10:09:03.077Z,16.3
2018-04-06T10:10:04.520Z,16.5
2018-04-06T10:11:05.914Z,16.4
2018-04-06T10:12:07.315Z,16.4
2018-04-06T10:13:08.737Z,16.4
2018-04-06T10:14:10.132Z,16.5
2018-04-06T10:15:11.532Z,16.6
2018-04-06T10:16:12.933Z,16.7
2018-04-06T10:17:14.329Z,16.3
2018-04-06T10:18:15.723Z,16.3
2018-04-06T10:19:17.114Z,16.3
2018-04-06T10:20:18.514Z,16.4
2018-04-06T10:21:19.910Z,16.2
2018-04-06T10:22:21.310Z,16.2
2018-04-06T10:23:22.747Z,16.2
2018-04-06T10:24:24.160Z,16.2
2018-04-06T10:25:25.555Z,16.2
2018-04-06T10:26:26.953Z,16.1
2018-04-06T10:27:28.398Z,16.0
2018-04-06T10:28:29.797Z,16.2
2018-04-06T10:29:31.197Z,16.4
2018-04-06T10:30:32.612Z,16.3
2018-04-06T10:31:34.017Z,16.5
2018-04-06T10:32:35.411Z,16.6
2018-04-06T10:33:36.808Z,16.8
2018-04-06T10:34:38.206Z,16.9
2018-04-06T10:35:39.606Z,17.0
2018-04-06T10:36:41.005Z,17.1
2018-04-06T10:37:42.404Z,17.1
2018-04-06T10:38:43.832Z,17.1
2018-04-06T10:39:45.232Z,17.1
2018-04-06T10:40:46.624Z,17.1
2018-04-06T10:41:48.023Z,17.3
2018-04-06T10:42:49.420Z,17.4
2018-04-06T10:43:50.818Z,17.3
2018-04-06T10:44:52.215Z,17.5
2018-04-06T10:45:53.732Z,17.5
2018-04-06T10:46:55.147Z,17.4
2018-04-06T10:47:56.547Z,17.5
2018-04-06T10:48:57.977Z,17.6
2018-04-06T10:49:59.378Z,17.7
2018-04-06T10:51:00.777Z,17.8
2018-04-06T10:52:02.178Z,17.9
2018-04-06T10:53:03.620Z,17.9
2018-04-06T10:54:05.017Z,18.0
2018-04-06T10:55:06.419Z,17.9
2018-04-06T10:56:07.817Z,18.0
2018-04-06T10:57:09.229Z,18.1
2018-04-06T10:58:10.646Z,18.3
2018-04-06T10:59:12.043Z,18.3
2018-04-06T11:00:13.459Z,18.4
2018-04-06T11:01:14.857Z,18.5
2018-04-06T11:02:16.258Z,18.4
2018-04-06T11:03:17.697Z,18.3
2018-04-06T11:04:19.112Z,18.6
2018-04-06T11:05:20.512Z,18.6
2018-04-06T11:06:21.917Z,18.7
2018-04-06T11:07:23.328Z,18.7
2018-04-06T11:08:24.721Z,18.9
2018-04-06T11:09:26.124Z,18.9
2018-04-06T11:10:27.524Z,18.9
2018-04-06T11:11:28.925Z,18.8
2018-04-06T11:12:30.338Z,18.8
2018-04-06T11:13:31.740Z,18.7
2018-04-06T11:14:33.146Z,18.8
2018-04-06T11:15:34.550Z,18.6
2018-04-06T11:16:35.945Z,18.7
2018-04-06T11:17:37.349Z,18.9
2018-04-06T11:18:38.747Z,18.9
2018-04-06T11:19:40.149Z,19.1
2018-04-06T11:20:41.550Z,19.3
2018-04-06T11:21:42.951Z,19.4
2018-04-06T11:22:44.361Z,19.5
2018-04-06T11:23:45.750Z,19.3
2018-04-06T11:24:47.150Z,19.3
2018-04-06T11:25:48.577Z,19.3
2018-04-06T11:26:49.972Z,19.4
2018-04-06T11:27:51.385Z,19.5
2018-04-06T11:28:52.769Z,19.7
2018-04-06T11:29:54.177Z,19.6
2018-04-06T11:30:55.575Z,19.6
2018-04-06T11:31:56.974Z,19.7
2018-04-06T11:32:58.383Z,19.8
2018-04-06T11:33:59.784Z,19.6
2018-04-06T11:35:01.185Z,19.6
2018-04-06T11:36:02.588Z,19.7
2018-04-06T11:37:03.985Z,19.4
2018-04-06T11:38:05.514Z,19.7
2018-04-06T11:39:06.898Z,19.9
2018-04-06T11:40:08.299Z,20.0
2018-04-06T11:41:09.698Z,20.0
2018-04-06T11:42:11.098Z,19.8
2018-04-06T11:43:12.502Z,19.9
2018-04-06T11:44:13.939Z,19.6
2018-04-06T11:45:15.316Z,19.8
2018-04-06T11:46:16.716Z,19.9
2018-04-06T11:47:18.118Z,19.9
2018-04-06T11:48:19.519Z,19.8
2018-04-06T11:49:20.920Z,19.6
2018-04-06T11:50:22.321Z,19.7
2018-04-06T11:51:23.730Z,19.9
2018-04-06T11:52:25.128Z,19.9
2018-04-06T11:53:26.529Z,20.2
2018-04-06T11:54:27.930Z,20.5
2018-04-06T11:55:29.332Z,20.5
2018-04-06T11:56:30.733Z,20.4
2018-04-06T11:57:32.138Z,20.3
2018-04-06T11:58:33.538Z,20.5
2018-04-06T11:59:34.937Z,20.5
2018-04-06T12:00:36.338Z,20.4
2018-04-06T12:01:37.739Z,20.4
2018-04-06T12:02:39.143Z,20.6
2018-04-06T12:03:40.545Z,20.6
2018-04-06T12:04:41.947Z,20.6
2018-04-06T12:05:43.349Z,20.9
2018-04-06T12:06:44.750Z,20.7
2018-04-06T12:07:46.152Z,20.7
2018-04-06T12:08:47.562Z,20.7
2018-04-06T12:09:48.968Z,20.6
2018-04-06T12:10:50.366Z,20.6
2018-04-06T12:11:51.770Z,20.8
2018-04-06T12:12:53.171Z,20.9
2018-04-06T12:13:54.569Z,21.0
2018-04-06T12:14:55.971Z,21.0
2018-04-06T12:15:57.373Z,21.1
2018-04-06T12:16:58.792Z,21.0
2018-04-06T12:18:00.193Z,21.1
2018-04-06T12:19:01.594Z,21.3
2018-04-06T12:20:02.996Z,21.2
2018-04-06T12:21:04.396Z,21.3
2018-04-06T12:22:05.794Z,21.2
2018-04-06T12:23:07.196Z,21.0
2018-04-06T12:24:08.600Z,21.1
2018-04-06T12:25:10.001Z,21.2
2018-04-06T12:26:11.404Z,21.1
2018-04-06T12:27:12.801Z,21.3
2018-04-06T12:28:14.204Z,21.1
2018-04-06T12:29:15.602Z,21.1
2018-04-06T12:30:17.035Z,21.2
2018-04-06T12:31:18.462Z,21.0
2018-04-06T12:32:19.861Z,21.0
2018-04-06T12:33:21.264Z,21.0
2018-04-06T12:34:22.666Z,21.0
2018-04-06T12:35:24.077Z,21.2
2018-04-06T12:36:25.478Z,21.3
2018-04-06T12:37:26.878Z,20.9
2018-04-06T12:38:28.276Z,20.9
2018-04-06T12:39:29.678Z,20.9
2018-04-06T12:40:31.081Z,20.7
2018-04-06T12:41:32.478Z,20.7
2018-04-06T12:42:33.880Z,20.9
2018-04-06T12:43:35.279Z,20.8
2018-04-06T12:44:36.680Z,20.9
2018-04-06T12:45:38.083Z,21.0
2018-04-06T12:46:39.484Z,20.9
2018-04-06T12:47:40.893Z,21.0
2018-04-06T12:48:42.286Z,21.0
2018-04-06T12:49:43.684Z,21.1
2018-04-06T12:50:45.085Z,21.3
2018-04-06T12:51:46.486Z,21.1
2018-04-06T12:52:47.899Z,21.2
2018-04-06T12:53:49.313Z,21.4
2018-04-06T12:54:50.710Z,21.5
2018-04-06T12:55:52.128Z,21.6
2018-04-06T12:56:53.596Z,21.7
2018-04-06T12:57:54.996Z,21.8
2018-04-06T12:58:56.398Z,21.8
2018-04-06T12:59:57.798Z,21.7
2018-04-06T13:00:59.211Z,21.5
2018-04-06T13:02:00.606Z,21.5
2018-04-06T13:03:02.067Z,21.5
2018-04-06T13:04:03.425Z,21.6
2018-04-06T13:05:04.822Z,21.4
2018-04-06T13:06:06.225Z,21.4
2018-04-06T13:07:07.623Z,21.5
2018-04-06T13:08:09.037Z,21.7
2018-04-06T13:09:10.445Z,21.7
2018-04-06T13:10:11.840Z,21.7
2018-04-06T13:11:13.241Z,21.7
2018-04-06T13:12:14.652Z,21.8
2018-04-06T13:13:16.061Z,21.8
2018-04-06T13:14:17.464Z,21.8
2018-04-06T13:15:18.864Z,21.7
2018-04-06T13:16:20.267Z,21.7
2018-04-06T13:17:21.668Z,21.8
2018-04-06T13:18:23.065Z,21.9
2018-04-06T13:19:24.466Z,21.8
2018-04-06T13:20:25.866Z,21.9
2018-04-06T13:21:27.274Z,21.7
2018-04-06T13:22:28.741Z,21.7
2018-04-06T13:23:30.154Z,21.8
2018-04-06T13:24:31.551Z,21.9
2018-04-06T13:25:32.953Z,21.7
2018-04-06T13:26:34.356Z,21.7
2018-04-06T13:27:35.756Z,21.8
2018-04-06T13:28:37.157Z,21.8
2018-04-06T13:29:38.559Z,21.8
2018-04-06T13:30:39.964Z,21.9
2018-04-06T13:31:41.364Z,21.8
2018-04-06T13:32:42.763Z,21.7
2018-04-06T13:33:44.175Z,21.8
2018-04-06T13:34:45.576Z,21.8
2018-04-06T13:35:46.979Z,21.8
2018-04-06T13:36:48.379Z,21.9
2018-04-06T13:37:49.782Z,21.8
2018-04-06T13:38:51.180Z,21.8
2018-04-06T13:39:52.586Z,21.8
2018-04-06T13:40:53.983Z,21.7
2018-04-06T13:41:55.386Z,21.9
2018-04-06T13:42:56.786Z,21.9
2018-04-06T13:43:58.187Z,21.9
2018-04-06T13:44:59.591Z,21.8
2018-04-06T13:46:00.994Z,22.0
2018-04-06T13:47:02.393Z,22.1
2018-04-06T13:48:03.813Z,22.2
2018-04-06T13:49:05.216Z,22.2
2018-04-06T13:50:06.617Z,22.3
2018-04-06T13:51:08.025Z,22.1
2018-04-06T13:52:09.421Z,22.1
2018-04-06T13:53:10.824Z,22.2
2018-04-06T13:54:12.223Z,22.2